Time;durP1;ratioP1;P1;durP2;ratioP2;P2;SDS_P1;SDS_P2;PMS_P1;PMS_P2;Temp;Humidity;BMP_temperature;BMP_pressure;BME280_temperature;BME280_humidity;BME280_pressure;Samples;Min_cycle;Max_cycle;Signal;HPM_P1;HPM_P2
2021/03/31 00:01:40;;;;;;;;;;;;;;;23.68;38.37;100884.47;4486591;31;33294;-54
2021/03/31 00:04:07;;;;;;;;;;;;;;;23.68;38.39;100874.41;4484732;31;33778;-45
2021/03/31 00:06:34;;;;;;;;;;;;;;;23.68;38.38;100879.88;4500637;31;35042;-60
2021/03/31 00:09:00;;;;;;;;;;;;;;;23.67;38.36;100877.34;4500254;31;34053;-58
2021/03/31 00:11:28;;;;;;;;;;;;;;;23.66;38.38;100868.34;4499402;31;33322;-48
2021/03/31 00:13:58;;;;;;;;;;;;;;;23.66;38.44;100873.78;4500344;31;34086;-59
2021/03/31 00:16:25;;;;;;;;;;;;;;;23.66;38.39;100867.50;4498805;31;34171;-60
2021/03/31 00:18:52;;;;;;;;;;;;;;;23.65;38.42;100861.22;4484546;32;34953;-56
2021/03/31 00:21:21;;;;;;;;;;;;;;;23.65;38.33;100857.66;4484821;32;32927;-60
2021/03/31 00:23:48;;;;;;;;;;;;;;;23.64;38.22;100862.28;4484337;32;34831;-60
2021/03/31 00:26:21;;;;;;;;;;;;;;;23.64;38.19;100856.81;4484426;32;33743;-51
2021/03/31 00:28:48;;;;;;;;;;;;;;;23.64;38.44;100851.38;4484193;32;34358;-57
2021/03/31 00:31:14;;;;;;;;;;;;;;;23.64;38.41;100851.38;4484354;32;34071;-59
2021/03/31 00:33:41;;;;;;;;;;;;;;;23.64;38.33;100847.78;4484314;32;34035;-51
2021/03/31 00:36:09;;;;;;;;;;;;;;;23.64;38.46;100850.50;4484422;32;34158;-60
2021/03/31 00:38:35;;;;;;;;;;;;;;;23.63;38.45;100837.91;4484165;32;33852;-60
2021/03/31 00:41:03;;;;;;;;;;;;;;;23.63;38.48;100840.63;4484481;32;32908;-49
2021/03/31 00:43:30;;;;;;;;;;;;;;;23.62;38.47;100845.22;4484280;32;34943;-60
2021/03/31 00:45:56;;;;;;;;;;;;;;;23.61;38.46;100843.56;4484189;32;33870;-55
2021/03/31 00:48:23;;;;;;;;;;;;;;;23.61;38.57;100846.28;4485897;31;33947;-50
2021/03/31 00:50:54;;;;;;;;;;;;;;;23.61;38.59;100846.28;4491904;31;33988;-49
2021/03/31 00:53:22;;;;;;;;;;;;;;;23.61;38.62;100845.44;4484188;32;34794;-56
2021/03/31 00:55:50;;;;;;;;;;;;;;;23.60;38.68;100852.78;4485889;31;34661;-48
2021/03/31 00:58:16;;;;;;;;;;;;;;;23.60;38.66;100841.88;4485933;31;34150;-51
2021/03/31 01:00:43;;;;;;;;;;;;;;;23.60;38.57;100851.94;4500058;31;33702;-57
2021/03/31 01:03:11;;;;;;;;;;;;;;;23.60;38.30;100843.78;4500057;31;33724;-52
2021/03/31 01:05:38;;;;;;;;;;;;;;;23.59;38.30;100842.91;4500002;31;34990;-56
2021/03/31 01:08:05;;;;;;;;;;;;;;;23.60;38.54;100838.31;4485050;31;34666;-57
2021/03/31 01:10:33;;;;;;;;;;;;;;;23.59;38.69;100840.19;4484092;32;33458;-62
2021/03/31 01:13:17;;;;;;;;;;;;;;;23.59;38.85;100845.62;4482482;32;35676;-53
2021/03/31 01:16:01;;;;;;;;;;;;;;;23.59;38.82;100839.34;4482841;32;34088;-50
2021/03/31 01:18:28;;;;;;;;;;;;;;;23.57;38.92;100845.00;4483885;32;35532;-59
2021/03/31 01:20:58;;;;;;;;;;;;;;;23.56;38.49;100837.88;4483841;32;34279;-45
2021/03/31 01:23:43;;;;;;;;;;;;;;;23.57;38.36;100839.56;4483488;32;34148;-49
2021/03/31 01:26:31;;;;;;;;;;;;;;;23.57;38.48;100833.28;4484387;32;34935;-55
2021/03/31 01:28:58;;;;;;;;;;;;;;;23.56;38.66;100837.88;4482509;32;34814;-57
2021/03/31 01:31:31;;;;;;;;;;;;;;;23.55;38.28;100838.94;4483911;32;33295;-62
2021/03/31 01:34:08;;;;;;;;;;;;;;;23.56;38.53;100831.59;4483886;32;34215;-52
2021/03/31 01:36:35;;;;;;;;;;;;;;;23.56;38.46;100832.44;4483701;32;34948;-61
2021/03/31 01:39:03;;;;;;;;;;;;;;;23.55;38.65;100824.44;4483819;32;34038;-62
2021/03/31 01:41:30;;;;;;;;;;;;;;;23.57;38.42;100839.56;4483531;32;33967;-61
2021/03/31 01:43:57;;;;;;;;;;;;;;;23.56;38.42;100835.16;4485122;31;34107;-46
2021/03/31 01:46:25;;;;;;;;;;;;;;;23.57;38.71;100839.56;4485476;31;34964;-48
2021/03/31 01:48:51;;;;;;;;;;;;;;;23.57;38.85;100838.72;4485003;31;34055;-55
2021/03/31 01:51:19;;;;;;;;;;;;;;;23.56;38.90;100834.31;4485181;31;33165;-51
2021/03/31 01:53:45;;;;;;;;;;;;;;;23.57;38.94;100838.72;4484954;31;34067;-48
2021/03/31 01:56:12;;;;;;;;;;;;;;;23.56;38.95;100831.59;4484773;31;33700;-58
2021/03/31 01:58:39;;;;;;;;;;;;;;;23.56;38.82;100835.16;4499397;31;34396;-52
2021/03/31 02:01:06;;;;;;;;;;;;;;;23.55;38.86;100829.87;4484914;31;33336;-49
2021/03/31 02:03:33;;;;;;;;;;;;;;;23.54;38.79;100829.06;4499049;31;34065;-56
2021/03/31 02:06:00;;;;;;;;;;;;;;;23.54;38.82;100831.78;4484774;31;35077;-59
2021/03/31 02:08:27;;;;;;;;;;;;;;;23.54;38.74;100834.50;4484734;31;34382;-44
2021/03/31 02:10:54;;;;;;;;;;;;;;;23.55;38.80;100829.87;4484759;31;33110;-55
2021/03/31 02:13:21;;;;;;;;;;;;;;;23.53;38.78;100835.56;4498930;31;33669;-60
2021/03/31 02:15:48;;;;;;;;;;;;;;;23.52;38.84;100831.16;4484991;31;34614;-60
2021/03/31 02:18:15;;;;;;;;;;;;;;;23.52;38.80;100831.16;4484605;31;34330;-50
2021/03/31 02:20:43;;;;;;;;;;;;;;;23.52;38.87;100833.87;4499040;31;33008;-46
2021/03/31 02:23:10;;;;;;;;;;;;;;;23.54;38.85;100844.56;4484987;31;34554;-51
2021/03/31 02:25:37;;;;;;;;;;;;;;;23.52;38.77;100842.06;4498940;31;34187;-48
2021/03/31 02:28:04;;;;;;;;;;;;;;;23.51;38.66;100837.66;4498844;31;33710;-47
2021/03/31 02:30:31;;;;;;;;;;;;;;;23.52;38.57;100839.31;4484594;31;33249;-54
2021/03/31 02:33:03;;;;;;;;;;;;;;;23.50;38.78;100841.44;4498625;31;34104;-51
2021/03/31 02:35:30;;;;;;;;;;;;;;;23.50;38.50;100840.56;4500844;31;34143;-46
2021/03/31 02:37:58;;;;;;;;;;;;;;;23.50;38.48;100837.84;4501133;31;34824;-47
2021/03/31 02:40:25;;;;;;;;;;;;;;;23.51;38.82;100840.37;4500930;31;32987;-54
2021/03/31 02:42:52;;;;;;;;;;;;;;;23.51;38.66;100836.81;4483982;32;34617;-57
2021/03/31 02:45:21;;;;;;;;;;;;;;;23.51;38.87;100839.53;4484237;32;34140;-46
2021/03/31 02:47:48;;;;;;;;;;;;;;;23.50;38.70;100835.97;4483869;32;33999;-46
2021/03/31 02:50:16;;;;;;;;;;;;;;;23.52;38.62;100838.50;4483959;32;33367;-46
2021/03/31 02:52:43;;;;;;;;;;;;;;;23.49;38.80;100834.28;4485025;32;34166;-62
2021/03/31 02:55:10;;;;;;;;;;;;;;;23.50;38.68;100835.09;4485003;32;34066;-55
2021/03/31 02:57:37;;;;;;;;;;;;;;;23.48;38.94;100827.16;4485118;32;35049;-46
2021/03/31 03:00:04;;;;;;;;;;;;;;;23.50;38.85;100838.69;4485303;32;33609;-47
2021/03/31 03:02:32;;;;;;;;;;;;;;;23.49;38.85;100830.72;4484920;32;35654;-56
2021/03/31 03:04:58;;;;;;;;;;;;;;;23.48;38.83;100829.87;4483140;32;34100;-49
2021/03/31 03:07:25;;;;;;;;;;;;;;;23.49;38.82;100830.72;4478611;32;33072;-60
2021/03/31 03:09:52;;;;;;;;;;;;;;;23.47;38.85;100827.37;4483283;31;32950;-59
2021/03/31 03:12:19;;;;;;;;;;;;;;;23.47;38.90;100828.19;4483759;32;33761;-55
2021/03/31 03:14:46;;;;;;;;;;;;;;;23.46;38.81;100826.53;4484792;32;35004;-51
2021/03/31 03:17:14;;;;;;;;;;;;;;;23.47;38.66;100825.47;4487739;31;33658;-58
2021/03/31 03:19:42;;;;;;;;;;;;;;;23.46;38.73;100820.25;4483721;31;33283;-52
2021/03/31 03:22:09;;;;;;;;;;;;;;;23.45;38.81;100818.53;4500716;31;33719;-57
2021/03/31 03:24:36;;;;;;;;;;;;;;;23.45;38.85;100818.53;4483865;32;34891;-48
2021/03/31 03:27:04;;;;;;;;;;;;;;;23.46;38.80;100812.06;4483979;32;34767;-60
2021/03/31 03:29:31;;;;;;;;;;;;;;;23.46;39.02;100812.06;4483749;32;33692;-48
2021/03/31 03:31:58;;;;;;;;;;;;;;;23.45;38.48;100811.19;4484875;32;33677;-49
2021/03/31 03:34:25;;;;;;;;;;;;;;;23.46;38.84;100814.78;4483718;32;34743;-47
2021/03/31 03:36:52;;;;;;;;;;;;;;;23.45;38.57;100804.91;4486228;31;34333;-46
2021/03/31 03:39:19;;;;;;;;;;;;;;;23.45;38.73;100811.19;4500583;31;34137;-48
2021/03/31 03:41:47;;;;;;;;;;;;;;;23.45;38.82;100808.47;4486200;31;33942;-48
2021/03/31 03:44:14;;;;;;;;;;;;;;;23.45;38.79;100810.37;4486297;31;34098;-60
2021/03/31 03:46:41;;;;;;;;;;;;;;;23.45;38.84;100813.09;4500451;31;34271;-50
2021/03/31 03:49:09;;;;;;;;;;;;;;;23.44;38.61;100817.69;4486336;31;33198;-48
2021/03/31 03:51:35;;;;;;;;;;;;;;;23.44;38.37;100814.97;4500881;31;34081;-43
2021/03/31 03:54:07;;;;;;;;;;;;;;;23.43;38.76;100813.28;4486299;31;33713;-50
2021/03/31 03:56:34;;;;;;;;;;;;;;;23.43;38.77;100814.13;4500723;31;34124;-54
2021/03/31 03:59:19;;;;;;;;;;;;;;;23.43;39.05;100810.56;4500476;31;34031;-47
2021/03/31 04:01:47;;;;;;;;;;;;;;;23.43;38.94;100821.47;4500514;31;33660;-54
2021/03/31 04:04:14;;;;;;;;;;;;;;;23.43;38.99;100819.59;4500551;31;34233;-50
2021/03/31 04:06:41;;;;;;;;;;;;;;;23.44;38.84;100814.97;4500694;31;34752;-53
2021/03/31 04:09:09;;;;;;;;;;;;;;;23.44;38.94;100814.97;4500481;31;33350;-49
2021/03/31 04:11:37;;;;;;;;;;;;;;;23.41;38.97;100812.66;4498631;31;34930;-48
2021/03/31 04:14:04;;;;;;;;;;;;;;;23.43;38.97;100814.13;4483588;32;33822;-51
2021/03/31 04:16:31;;;;;;;;;;;;;;;23.42;38.99;100815.19;4483423;32;34520;-59
2021/03/31 04:19:00;;;;;;;;;;;;;;;23.42;38.99;100817.06;4484539;32;33321;-46
2021/03/31 04:21:28;;;;;;;;;;;;;;;23.42;38.96;100815.19;4484654;32;34217;-52
2021/03/31 04:23:55;;;;;;;;;;;;;;;23.41;38.72;100809.94;4484634;32;34145;-45
2021/03/31 04:26:22;;;;;;;;;;;;;;;23.41;38.78;100809.94;4483760;32;34846;-61
2021/03/31 04:28:49;;;;;;;;;;;;;;;23.44;38.98;100817.69;4474392;31;34034;-54
2021/03/31 04:31:16;;;;;;;;;;;;;;;23.40;38.80;100814.53;4482797;32;33988;-59
2021/03/31 04:33:44;;;;;;;;;;;;;;;23.41;38.82;100810.78;4485940;31;34013;-50
2021/03/31 04:36:10;;;;;;;;;;;;;;;23.41;38.89;100807.22;4491313;31;34278;-60
2021/03/31 04:38:45;;;;;;;;;;;;;;;23.41;38.74;100813.50;4483090;32;34121;-53
2021/03/31 04:41:12;;;;;;;;;;;;;;;23.40;38.93;100816.41;4484408;32;34957;-56
2021/03/31 04:43:39;;;;;;;;;;;;;;;23.41;38.68;100820.84;4484606;32;34892;-61
2021/03/31 04:46:08;;;;;;;;;;;;;;;23.41;38.88;100816.22;4484200;32;34069;-60
2021/03/31 04:48:35;;;;;;;;;;;;;;;23.41;38.64;100809.94;4484289;32;33362;-60
2021/03/31 04:51:02;;;;;;;;;;;;;;;23.41;38.53;100812.66;4484432;32;34253;-52
2021/03/31 04:53:29;;;;;;;;;;;;;;;23.40;38.68;100828.16;4484068;32;34870;-57
2021/03/31 04:55:56;;;;;;;;;;;;;;;23.40;38.79;100821.84;4484063;32;34692;-54
2021/03/31 04:58:23;;;;;;;;;;;;;;;23.40;38.89;100821.84;4483582;32;33471;-59
2021/03/31 05:00:50;;;;;;;;;;;;;;;23.41;38.85;100824.41;4484170;32;34942;-57
2021/03/31 05:03:17;;;;;;;;;;;;;;;23.40;38.53;100819.97;4484119;32;34206;-53
2021/03/31 05:05:44;;;;;;;;;;;;;;;23.40;38.76;100821.84;4484032;32;34780;-57
2021/03/31 05:08:11;;;;;;;;;;;;;;;23.39;38.85;100810.13;4484196;32;34047;-55
2021/03/31 05:10:38;;;;;;;;;;;;;;;23.40;39.12;100810.97;4484204;32;34078;-58
2021/03/31 05:13:05;;;;;;;;;;;;;;;23.39;39.04;100812.00;4483877;32;34555;-58
2021/03/31 05:15:33;;;;;;;;;;;;;;;23.40;38.51;100813.69;4484188;32;34841;-60
2021/03/31 05:18:00;;;;;;;;;;;;;;;23.39;38.64;100815.56;4484131;32;33801;-56
2021/03/31 05:20:27;;;;;;;;;;;;;;;23.39;38.83;100809.28;4484174;32;34167;-60
2021/03/31 05:22:54;;;;;;;;;;;;;;;23.40;38.87;100810.97;4484005;32;34879;-61
2021/03/31 05:25:22;;;;;;;;;;;;;;;23.38;38.64;100813.91;4483897;32;34302;-56
2021/03/31 05:27:53;;;;;;;;;;;;;;;23.38;38.78;100813.91;4483885;32;33492;-55
2021/03/31 05:30:21;;;;;;;;;;;;;;;23.38;39.04;100818.50;4482708;31;34211;-60
2021/03/31 05:32:48;;;;;;;;;;;;;;;23.39;38.96;100812.00;4474234;32;33671;-53
2021/03/31 05:35:15;;;;;;;;;;;;;;;23.38;39.00;100819.34;4483497;32;33705;-48
2021/03/31 05:37:43;;;;;;;;;;;;;;;23.39;38.85;100812.00;4483632;32;33201;-61
2021/03/31 05:40:10;;;;;;;;;;;;;;;23.38;38.99;100818.50;4483779;32;34771;-57
2021/03/31 05:42:38;;;;;;;;;;;;;;;23.38;38.75;100818.50;4483132;32;34171;-57
2021/03/31 05:45:06;;;;;;;;;;;;;;;23.38;38.96;100816.63;4476560;32;34209;-60
2021/03/31 05:47:36;;;;;;;;;;;;;;;23.37;38.79;100825.84;4484048;31;33402;-57
2021/03/31 05:50:05;;;;;;;;;;;;;;;23.38;38.42;100823.97;4499347;31;34094;-60
2021/03/31 05:52:32;;;;;;;;;;;;;;;23.38;38.78;100823.97;4499340;31;34142;-55
2021/03/31 05:55:02;;;;;;;;;;;;;;;23.37;38.83;100827.72;4499230;31;34022;-59
2021/03/31 05:57:33;;;;;;;;;;;;;;;23.37;38.68;100830.47;4499145;31;32973;-51
2021/03/31 06:00:00;;;;;;;;;;;;;;;23.38;38.50;100832.12;4480545;31;34092;-49
2021/03/31 06:02:38;;;;;;;;;;;;;;;23.38;38.69;100832.12;4477628;31;34134;-59
2021/03/31 06:05:06;;;;;;;;;;;;;;;23.37;38.96;100834.00;4476988;32;34036;-50
2021/03/31 06:07:33;;;;;;;;;;;;;;;23.38;38.52;100829.41;4472945;32;35606;-56
2021/03/31 06:10:18;;;;;;;;;;;;;;;23.38;38.53;100832.12;4484930;32;34189;-57
2021/03/31 06:12:55;;;;;;;;;;;;;;;23.36;38.58;100829.63;4485404;32;35660;-52
2021/03/31 06:15:24;;;;;;;;;;;;;;;23.36;38.97;100826.03;4485078;32;34928;-49
2021/03/31 06:17:53;;;;;;;;;;;;;;;23.36;38.94;100828.75;4485459;32;34152;-52
2021/03/31 06:20:39;;;;;;;;;;;;;;;23.35;38.66;100816.19;4492145;31;34196;-55
2021/03/31 06:23:12;;;;;;;;;;;;;;;23.35;38.74;100818.91;4483652;31;34113;-49
2021/03/31 06:25:48;;;;;;;;;;;;;;;23.35;38.90;100817.03;4482782;32;34030;-59
2021/03/31 06:28:25;;;;;;;;;;;;;;;23.35;38.99;100825.19;4473450;32;34128;-56
2021/03/31 06:31:13;;;;;;;;;;;;;;;23.35;38.49;100813.47;4469509;32;33869;-54
2021/03/31 06:33:41;;;;;;;;;;;;;;;23.36;38.82;100812.41;4476308;32;34179;-54
2021/03/31 06:36:08;;;;;;;;;;;;;;;23.37;38.92;100809.50;4485594;32;34028;-60
2021/03/31 06:38:37;;;;;;;;;;;;;;;23.35;38.80;100805.28;4485232;32;33224;-49
2021/03/31 06:41:17;;;;;;;;;;;;;;;23.35;38.89;100808.00;4485469;32;34805;-52
2021/03/31 06:43:56;;;;;;;;;;;;;;;23.35;38.76;100799.84;4485368;32;33571;-58
2021/03/31 06:46:27;;;;;;;;;;;;;;;23.35;38.87;100802.56;4485118;32;34116;-47
2021/03/31 06:48:54;;;;;;;;;;;;;;;23.35;38.93;100797.13;4485151;32;33185;-56
2021/03/31 06:51:24;;;;;;;;;;;;;;;23.34;38.95;100801.72;4485199;32;34083;-57
2021/03/31 06:53:51;;;;;;;;;;;;;;;23.35;38.97;100792.50;4485451;32;33719;-61
2021/03/31 06:56:28;;;;;;;;;;;;;;;23.35;38.99;100802.56;4478812;32;34790;-53
2021/03/31 06:58:56;;;;;;;;;;;;;;;23.35;39.00;100797.97;4485142;32;33252;-55
2021/03/31 07:01:29;;;;;;;;;;;;;;;23.35;38.95;100799.84;4485360;32;34892;-54
2021/03/31 07:03:56;;;;;;;;;;;;;;;23.34;38.95;100799.00;4485304;32;34083;-57
2021/03/31 07:06:23;;;;;;;;;;;;;;;23.35;38.83;100795.22;4485038;32;34261;-60
2021/03/31 07:08:50;;;;;;;;;;;;;;;23.35;38.96;100797.13;4485026;32;33229;-52
2021/03/31 07:11:36;;;;;;;;;;;;;;;23.35;38.99;100795.22;4485038;32;34118;-52
2021/03/31 07:14:05;;;;;;;;;;;;;;;23.35;38.99;100797.97;4480983;32;34990;-57
2021/03/31 07:16:32;;;;;;;;;;;;;;;23.35;38.94;100797.13;4479700;32;33862;-57
2021/03/31 07:18:59;;;;;;;;;;;;;;;23.36;38.93;100788.78;4473431;32;33924;-54
2021/03/31 07:21:31;;;;;;;;;;;;;;;23.36;38.85;100790.63;4482436;31;34078;-61
2021/03/31 07:23:59;;;;;;;;;;;;;;;23.36;38.90;100790.63;4500760;31;34087;-50
2021/03/31 07:26:25;;;;;;;;;;;;;;;23.38;38.88;100788.56;4500719;31;33796;-58
2021/03/31 07:28:52;;;;;;;;;;;;;;;23.37;38.92;100789.59;4486385;31;33225;-54
2021/03/31 07:31:24;;;;;;;;;;;;;;;23.37;38.94;100785.00;4495993;31;34092;-45
2021/03/31 07:33:54;;;;;;;;;;;;;;;23.36;39.02;100783.31;4484835;32;34242;-45
2021/03/31 07:36:21;;;;;;;;;;;;;;;23.38;39.01;100780.38;4484628;32;34113;-51
2021/03/31 07:38:48;;;;;;;;;;;;;;;23.40;38.97;100781.00;4484561;32;34101;-56
2021/03/31 07:41:15;;;;;;;;;;;;;;;23.39;38.56;100782.91;4484898;32;33287;-60
2021/03/31 07:43:42;;;;;;;;;;;;;;;23.40;38.54;100783.72;4484702;32;33748;-53
2021/03/31 07:46:14;;;;;;;;;;;;;;;23.38;38.48;100780.38;4484829;32;35388;-58
2021/03/31 07:48:41;;;;;;;;;;;;;;;23.38;38.31;100778.50;4484838;32;33361;-60
2021/03/31 07:51:21;;;;;;;;;;;;;;;23.38;38.23;100772.22;4484848;32;34850;-58
2021/03/31 07:53:49;;;;;;;;;;;;;;;23.38;38.11;100781.22;4484619;32;34929;-56
2021/03/31 07:56:17;;;;;;;;;;;;;;;23.36;38.17;100782.44;4484508;32;34342;-61
2021/03/31 07:59:07;;;;;;;;;;;;;;;23.37;38.12;100778.72;4483208;32;34247;-51
2021/03/31 08:01:35;;;;;;;;;;;;;;;23.35;38.07;100787.06;4468017;32;34227;-54
2021/03/31 08:04:02;;;;;;;;;;;;;;;23.37;37.92;100790.44;4482229;32;34172;-57
2021/03/31 08:06:30;;;;;;;;;;;;;;;23.37;37.73;100790.44;4484200;32;34066;-59
2021/03/31 08:08:58;;;;;;;;;;;;;;;23.38;37.62;100785.84;4484397;32;33969;-46
2021/03/31 08:11:41;;;;;;;;;;;;;;;23.38;37.73;100791.28;4480683;32;34473;-52
2021/03/31 08:14:08;;;;;;;;;;;;;;;23.37;37.78;100793.16;4484330;32;34577;-46
2021/03/31 08:16:37;;;;;;;;;;;;;;;23.36;37.77;100791.50;4484627;32;34185;-51
2021/03/31 08:19:06;;;;;;;;;;;;;;;23.36;37.81;100785.19;4470575;32;33106;-50
2021/03/31 08:21:33;;;;;;;;;;;;;;;23.35;37.80;100786.22;4482314;32;34818;-47
2021/03/31 08:24:14;;;;;;;;;;;;;;;23.35;37.80;100780.78;4484490;32;35060;-46
2021/03/31 08:26:45;;;;;;;;;;;;;;;23.35;37.66;100784.34;4484689;32;34794;-51
2021/03/31 08:29:18;;;;;;;;;;;;;;;23.35;37.64;100778.06;4481067;32;32899;-55
2021/03/31 08:31:45;;;;;;;;;;;;;;;23.34;37.59;100774.50;4476859;32;34134;-54
2021/03/31 08:34:13;;;;;;;;;;;;;;;23.33;37.57;100774.72;4474555;32;34689;-56
2021/03/31 08:36:41;;;;;;;;;;;;;;;23.36;37.46;100779.72;4483040;31;34104;-53
2021/03/31 08:39:10;;;;;;;;;;;;;;;23.38;36.96;100764.03;4478162;32;33330;-52
2021/03/31 08:41:41;;;;;;;;;;;;;;;23.42;36.61;100763.44;4483856;32;34201;-50
2021/03/31 08:44:22;;;;;;;;;;;;;;;23.49;36.46;100771.63;4484585;32;34898;-50
2021/03/31 08:46:53;;;;;;;;;;;;;;;23.54;36.25;100762.84;4483940;32;34274;-54
2021/03/31 08:49:20;;;;;;;;;;;;;;;23.59;36.09;100768.50;4470087;32;34132;-53
2021/03/31 08:51:48;;;;;;;;;;;;;;;23.63;35.91;100764.34;4484134;32;34647;-51
2021/03/31 08:54:16;;;;;;;;;;;;;;;23.68;35.73;100759.97;4484228;32;34087;-54
2021/03/31 08:56:48;;;;;;;;;;;;;;;23.73;35.52;100766.69;4484159;32;34079;-55
2021/03/31 08:59:15;;;;;;;;;;;;;;;23.77;35.41;100759.81;4484113;32;33969;-54
2021/03/31 09:01:42;;;;;;;;;;;;;;;23.78;34.59;100759.63;4473085;32;34035;-48
2021/03/31 09:04:12;;;;;;;;;;;;;;;23.80;34.44;100760.22;4468415;32;34238;-55
2021/03/31 09:06:40;;;;;;;;;;;;;;;23.83;34.71;100762.56;4477884;32;33603;-55
2021/03/31 09:09:08;;;;;;;;;;;;;;;23.84;34.68;100752.50;4484146;32;33350;-51
2021/03/31 09:11:35;;;;;;;;;;;;;;;23.84;34.37;100756.06;4483853;32;34155;-47
2021/03/31 09:14:16;;;;;;;;;;;;;;;23.86;34.01;100750.38;4483940;32;34242;-48
2021/03/31 09:16:53;;;;;;;;;;;;;;;23.85;33.67;100746.81;4484138;32;34682;-44
2021/03/31 09:19:27;;;;;;;;;;;;;;;23.84;33.59;100744.31;4483838;32;34595;-61
2021/03/31 09:21:54;;;;;;;;;;;;;;;23.83;33.82;100739.91;4484133;32;34433;-52
2021/03/31 09:24:23;;;;;;;;;;;;;;;23.83;33.75;100739.91;4483826;32;33834;-56
2021/03/31 09:27:09;;;;;;;;;;;;;;;23.79;34.09;100735.94;4483701;32;34188;-49
2021/03/31 09:29:36;;;;;;;;;;;;;;;23.79;34.17;100735.94;4484355;32;32769;-53
2021/03/31 09:32:05;;;;;;;;;;;;;;;23.79;34.29;100730.47;4483860;32;34094;-62
2021/03/31 09:34:34;;;;;;;;;;;;;;;23.77;34.57;100733.38;4483825;32;34606;-48
2021/03/31 09:37:03;;;;;;;;;;;;;;;23.76;34.50;100728.16;4483731;32;34321;-56
2021/03/31 09:39:41;;;;;;;;;;;;;;;23.74;34.95;100727.53;4482199;32;33111;-49
2021/03/31 09:42:23;;;;;;;;;;;;;;;23.72;35.20;100725.00;4483986;32;33756;-63
2021/03/31 09:44:53;;;;;;;;;;;;;;;23.71;35.31;100708.88;4485551;32;33951;-61
2021/03/31 09:47:20;;;;;;;;;;;;;;;23.68;35.47;100710.94;4485689;32;34672;-63
2021/03/31 09:49:48;;;;;;;;;;;;;;;23.67;35.26;100711.97;4485580;32;33355;-63
2021/03/31 09:52:15;;;;;;;;;;;;;;;23.66;35.22;100710.31;4484779;32;34753;-48
2021/03/31 09:54:46;;;;;;;;;;;;;;;23.64;35.17;100706.97;4484738;32;33899;-55
2021/03/31 09:57:16;;;;;;;;;;;;;;;23.65;35.50;100710.53;4471983;32;34111;-47
2021/03/31 09:59:42;;;;;;;;;;;;;;;23.63;35.50;100702.50;4471335;32;33289;-56
2021/03/31 10:02:09;;;;;;;;;;;;;;;23.62;35.60;100702.72;4485465;32;33788;-48
2021/03/31 10:04:39;;;;;;;;;;;;;;;23.61;35.62;100696.44;4485354;32;34055;-49
2021/03/31 10:07:12;;;;;;;;;;;;;;;23.61;35.49;100696.44;4473338;32;34813;-46
2021/03/31 10:09:56;;;;;;;;;;;;;;;23.61;35.53;100688.28;4469911;32;33304;-56
2021/03/31 10:12:27;;;;;;;;;;;;;;;23.60;35.66;100693.94;4469724;32;34141;-47
2021/03/31 10:14:55;;;;;;;;;;;;;;;23.59;35.86;100682.16;4469849;32;34135;-52
2021/03/31 10:17:22;;;;;;;;;;;;;;;23.58;35.89;100688.66;4469673;32;34274;-53
2021/03/31 10:19:49;;;;;;;;;;;;;;;23.57;35.98;100678.81;4469751;32;33838;-49
2021/03/31 10:22:17;;;;;;;;;;;;;;;23.56;35.91;100679.88;4469785;32;34885;-50
2021/03/31 10:25:06;;;;;;;;;;;;;;;23.56;35.96;100677.16;4469750;32;34057;-47
2021/03/31 10:27:53;;;;;;;;;;;;;;;23.55;35.80;100664.59;4469649;32;35011;-57
2021/03/31 10:30:40;;;;;;;;;;;;;;;23.55;35.87;100661.88;4469965;32;34013;-46
2021/03/31 10:33:27;;;;;;;;;;;;;;;23.53;35.98;100668.53;4469682;32;33650;-47
2021/03/31 10:35:56;;;;;;;;;;;;;;;23.53;35.86;100666.66;4469356;32;34241;-49
2021/03/31 10:38:30;;;;;;;;;;;;;;;23.53;35.77;100654.94;4483060;32;34473;-49
2021/03/31 10:41:25;;;;;;;;;;;;;;;23.52;35.83;100658.69;4485648;32;33700;-49
2021/03/31 10:49:36;;;;;;;;;;;;;;;23.50;36.12;100653.47;4473119;32;34162;-46
2021/03/31 10:52:24;;;;;;;;;;;;;;;23.49;36.10;100654.50;4484493;32;34051;-49
2021/03/31 10:54:53;;;;;;;;;;;;;;;23.49;36.14;100645.47;4484021;32;34072;-55
2021/03/31 10:57:20;;;;;;;;;;;;;;;23.49;36.06;100629.12;4485132;32;34662;-46
2021/03/31 10:59:47;;;;;;;;;;;;;;;23.50;36.15;100639.84;4483685;32;34064;-51
2021/03/31 11:02:14;;;;;;;;;;;;;;;23.48;36.12;100633.75;4484997;32;33696;-46
2021/03/31 11:04:42;;;;;;;;;;;;;;;23.49;36.06;100635.44;4484818;32;34879;-49
2021/03/31 11:07:09;;;;;;;;;;;;;;;23.48;36.17;100628.31;4485098;32;34311;-52
2021/03/31 11:09:39;;;;;;;;;;;;;;;23.45;36.25;100623.25;4484963;32;33785;-47
2021/03/31 11:12:07;;;;;;;;;;;;;;;23.45;36.15;100628.72;4484832;32;33229;-47
2021/03/31 11:14:34;;;;;;;;;;;;;;;23.48;36.15;100616.56;4485025;32;33605;-48
2021/03/31 11:17:07;;;;;;;;;;;;;;;23.48;36.14;100620.13;4484741;32;34209;-58
2021/03/31 11:27:48;;;;;;;;;;;;;;;23.44;36.21;100602.53;4428011;32;33765;-61
2021/03/31 11:30:15;;;;;;;;;;;;;;;23.45;36.01;100596.03;4483649;32;33775;-49
2021/03/31 11:32:42;;;;;;;;;;;;;;;23.45;36.15;100585.13;4483599;32;33320;-46
2021/03/31 11:35:09;;;;;;;;;;;;;;;23.46;36.08;100586.84;4469572;32;34278;-54
2021/03/31 11:37:36;;;;;;;;;;;;;;;23.46;36.12;100589.56;4484434;32;34080;-52
2021/03/31 11:40:04;;;;;;;;;;;;;;;23.43;36.23;100587.25;4484935;32;34953;-52
2021/03/31 11:42:31;;;;;;;;;;;;;;;23.45;36.12;100595.19;4484608;32;33322;-49
2021/03/31 11:44:58;;;;;;;;;;;;;;;23.44;36.11;100588.91;4483151;32;34200;-46
2021/03/31 11:47:25;;;;;;;;;;;;;;;23.43;36.13;100590.78;4484824;32;34119;-47
2021/03/31 11:49:51;;;;;;;;;;;;;;;23.45;36.06;100578.84;4484415;32;34078;-49
2021/03/31 11:52:19;;;;;;;;;;;;;;;23.44;36.12;100583.47;4482877;32;33964;-47
2021/03/31 11:54:45;;;;;;;;;;;;;;;23.45;36.08;100578.84;4484029;32;33538;-64
2021/03/31 11:57:12;;;;;;;;;;;;;;;23.45;35.94;100576.13;4484564;32;34174;-59
2021/03/31 11:59:39;;;;;;;;;;;;;;;23.46;35.86;100575.09;4484885;32;33555;-58
2021/03/31 12:02:06;;;;;;;;;;;;;;;23.48;35.69;100568.38;4485092;32;33336;-54
2021/03/31 12:04:33;;;;;;;;;;;;;;;23.51;35.55;100572.59;4470428;32;34166;-55
2021/03/31 12:07:02;;;;;;;;;;;;;;;23.54;35.43;100567.53;4473031;32;34716;-59
2021/03/31 12:09:29;;;;;;;;;;;;;;;23.58;35.29;100557.06;4469063;32;33836;-55
2021/03/31 12:11:58;;;;;;;;;;;;;;;23.60;34.74;100555.81;4468862;32;33401;-60
2021/03/31 12:14:25;;;;;;;;;;;;;;;23.64;34.78;100545.34;4469017;32;35002;-55
2021/03/31 12:16:52;;;;;;;;;;;;;;;23.65;35.03;100542.44;4467640;32;34885;-50
2021/03/31 12:19:19;;;;;;;;;;;;;;;23.65;35.11;100539.72;4468681;32;34145;-55
2021/03/31 12:21:50;;;;;;;;;;;;;;;23.65;35.17;100531.53;4468839;32;33219;-53
2021/03/31 12:24:16;;;;;;;;;;;;;;;23.64;35.16;100529.88;4474750;32;34592;-52
2021/03/31 12:26:44;;;;;;;;;;;;;;;23.65;35.28;100525.25;4484394;32;34019;-49
2021/03/31 12:29:10;;;;;;;;;;;;;;;23.66;35.46;100522.31;4484438;32;34116;-50
2021/03/31 12:31:37;;;;;;;;;;;;;;;23.66;35.48;100522.31;4484551;32;33315;-48
2021/03/31 12:34:05;;;;;;;;;;;;;;;23.65;35.41;100509.75;4469872;32;34549;-54
2021/03/31 12:36:31;;;;;;;;;;;;;;;23.64;35.62;100508.09;4484334;32;34079;-49
2021/03/31 12:38:58;;;;;;;;;;;;;;;23.61;35.67;100505.75;4484530;32;34964;-49
2021/03/31 12:41:25;;;;;;;;;;;;;;;23.61;35.51;100494.84;4484394;32;33250;-54
2021/03/31 12:43:52;;;;;;;;;;;;;;;23.61;35.47;100499.44;4484324;32;34876;-55
2021/03/31 12:46:19;;;;;;;;;;;;;;;23.61;35.51;100489.38;4484408;32;34169;-51
2021/03/31 12:48:46;;;;;;;;;;;;;;;23.61;35.35;100497.56;4484171;32;34149;-53
2021/03/31 12:51:16;;;;;;;;;;;;;;;23.59;35.49;100486.03;4484734;32;33257;-50
2021/03/31 12:54:01;;;;;;;;;;;;;;;23.58;35.48;100481.63;4484304;32;33989;-59
2021/03/31 12:56:28;;;;;;;;;;;;;;;23.58;35.59;100489.81;4484272;32;34046;-53
2021/03/31 12:58:55;;;;;;;;;;;;;;;23.58;35.63;100478.06;4484161;32;33934;-50
2021/03/31 13:01:32;;;;;;;;;;;;;;;23.57;35.56;100468.22;4484461;32;33274;-54